YM Eminence — A8OR9 — position and weather

sailwx.info

Track history (hours):
 
Tides and Currents Weather Stations Pressure Air Temp Water Temp Dewpoint Dewpoint Depression Visibility Wind Speed Wind Dir Waves Ship Positions

YM Eminence

Last reported at 2018-Jul-16 19:14 UTC. Time now 2018-Jul-17 07:30 UTC.
Position N 01°28' E 104°32'.

Length 269 m; draft 10.2 m.

Type: Cargo ship. MMSI: 636013694.

Date/timePositionNaut miles runAvg speedWind from/ knotsBaromVisibWave heightAir tempDewpointWater temp
2018-Jul-16 19:14N 01°28' E 104°32'312.2
2018-Jul-16 18:59N 01°26' E 104°30'612.4
2018-Jul-16 18:30N 01°22' E 104°25'612.3
2018-Jul-16 17:59N 01°18' E 104°21'611.3
2018-Jul-16 17:27N 01°17' E 104°15'511.0
2018-Jul-16 16:59N 01°15' E 104°10'510.6
2018-Jul-16 16:28N 01°15' E 104°04'510.4
2018-Jul-16 15:59N 01°15' E 103°59'5 9.8
2018-Jul-16 15:30N 01°13' E 103°55'510.2
2018-Jul-16 15:01N 01°11' E 103°50'4 8.4
2018-Jul-16 14:30N 01°14' E 103°47'3 5.6
2018-Jul-16 14:01N 01°17' E 103°47'0 0.1
2018-Jul-16 13:29N 01°17' E 103°47'0 0.0
2018-Jul-16 12:57N 01°17' E 103°47'0 0.0
2018-Jul-16 12:30N 01°17' E 103°47'0 0.0
2018-Jul-16 11:59N 01°17' E 103°47'0 0.0
2018-Jul-16 11:29N 01°17' E 103°47'0 0.0
2018-Jul-16 10:59N 01°17' E 103°47'0 0.0
2018-Jul-16 10:29N 01°17' E 103°47'0 0.0
2018-Jul-16 09:59N 01°17' E 103°47'0 0.0
2018-Jul-16 09:29N 01°17' E 103°47'0 0.0
2018-Jul-16 08:59N 01°17' E 103°47'0 0.0
2018-Jul-16 08:29N 01°17' E 103°47'0 0.0
2018-Jul-16 07:59N 01°17' E 103°47'0 0.0
2018-Jul-16 07:29N 01°17' E 103°47'0 0.0
2018-Jul-16 06:59N 01°17' E 103°47'0 0.0
2018-Jul-16 06:27N 01°17' E 103°47'0 0.0
2018-Jul-16 05:59N 01°17' E 103°47'0 0.1
2018-Jul-16 05:30N 01°17' E 103°47'2 3.6
2018-Jul-16 05:00N 01°15' E 103°46'5 9.7
2018-Jul-16 04:30N 01°13' E 103°41'510.1
2018-Jul-16 04:00N 01°13' E 103°36'510.3
2018-Jul-16 03:30N 01°11' E 103°32'712.4
2018-Jul-16 02:58N 01°12' E 103°25'511.3
2018-Jul-16 02:30N 01°14' E 103°21'5 8.8
2018-Jul-16 01:59N 01°17' E 103°17'4 8.5
2018-Jul-16 01:29N 01°20' E 103°14'5 8.9
2018-Jul-16 00:55N 01°23' E 103°10'  
Track history (hours):
 
Tides and Currents Weather Stations Pressure Air Temp Water Temp Dewpoint Dewpoint Depression Visibility Wind Speed Wind Dir Waves Ship Positions

YM Eminence

Last reported at 2018-Jul-16 19:14 UTC. Time now 2018-Jul-17 07:30 UTC.
Position N 01°28' E 104°32'.

Length 269 m; draft 10.2 m.

Type: Cargo ship. MMSI: 636013694.

Date/timePositionNaut miles runAvg speedWind from/ knotsBaromVisibWave heightAir tempDewpointWater temp
2018-Jul-16 19:14N 01°28' E 104°32'312.2
2018-Jul-16 18:59N 01°26' E 104°30'612.4
2018-Jul-16 18:30N 01°22' E 104°25'612.3
2018-Jul-16 17:59N 01°18' E 104°21'611.3
2018-Jul-16 17:27N 01°17' E 104°15'511.0
2018-Jul-16 16:59N 01°15' E 104°10'510.6
2018-Jul-16 16:28N 01°15' E 104°04'510.4
2018-Jul-16 15:59N 01°15' E 103°59'5 9.8
2018-Jul-16 15:30N 01°13' E 103°55'510.2
2018-Jul-16 15:01N 01°11' E 103°50'4 8.4
2018-Jul-16 14:30N 01°14' E 103°47'3 5.6
2018-Jul-16 14:01N 01°17' E 103°47'0 0.1
2018-Jul-16 13:29N 01°17' E 103°47'0 0.0
2018-Jul-16 12:57N 01°17' E 103°47'0 0.0
2018-Jul-16 12:30N 01°17' E 103°47'0 0.0
2018-Jul-16 11:59N 01°17' E 103°47'0 0.0
2018-Jul-16 11:29N 01°17' E 103°47'0 0.0
2018-Jul-16 10:59N 01°17' E 103°47'0 0.0
2018-Jul-16 10:29N 01°17' E 103°47'0 0.0
2018-Jul-16 09:59N 01°17' E 103°47'0 0.0
2018-Jul-16 09:29N 01°17' E 103°47'0 0.0
2018-Jul-16 08:59N 01°17' E 103°47'0 0.0
2018-Jul-16 08:29N 01°17' E 103°47'0 0.0
2018-Jul-16 07:59N 01°17' E 103°47'0 0.0
2018-Jul-16 07:29N 01°17' E 103°47'0 0.0
2018-Jul-16 06:59N 01°17' E 103°47'0 0.0
2018-Jul-16 06:27N 01°17' E 103°47'0 0.0
2018-Jul-16 05:59N 01°17' E 103°47'0 0.1
2018-Jul-16 05:30N 01°17' E 103°47'2 3.6
2018-Jul-16 05:00N 01°15' E 103°46'5 9.7
2018-Jul-16 04:30N 01°13' E 103°41'510.1
2018-Jul-16 04:00N 01°13' E 103°36'510.3
2018-Jul-16 03:30N 01°11' E 103°32'712.4
2018-Jul-16 02:58N 01°12' E 103°25'511.3
2018-Jul-16 02:30N 01°14' E 103°21'5 8.8
2018-Jul-16 01:59N 01°17' E 103°17'4 8.5
2018-Jul-16 01:29N 01°20' E 103°14'5 8.9
2018-Jul-16 00:55N 01°23' E 103°10'  

Dump ship's entire track history